Time,TemperatureF,DewpointF,PressureIn,WindDirection,WindDirectionDegrees,WindSpeedMPH,WindSpeedGustMPH,Humidity,HourlyPrecipIn,Conditions,Clouds,dailyrainin,SoftwareType,DateUTC
2013-03-03 00:14:00,29.8,25.0,29.66,NW,311,1.0,3.0,81,0.00,,,0.00,weatherlink.com 1.10,2013-03-03 05:14:00,
2013-03-03 00:29:00,29.5,24.0,29.66,NNW,338,0.0,5.0,81,0.00,,,0.00,weatherlink.com 1.10,2013-03-03 05:29:00,
2013-03-03 00:44:00,29.3,25.0,29.66,NE,43,0.0,3.0,83,0.00,,,0.00,weatherlink.com 1.10,2013-03-03 05:44:00,
2013-03-03 00:59:00,29.1,25.0,29.65,NW,318,0.0,4.0,84,0.00,,,0.00,weatherlink.com 1.10,2013-03-03 05:59:00,
2013-03-03 01:14:00,28.9,25.0,29.65,WNW,290,1.0,3.0,84,0.00,,,0.00,weatherlink.com 1.10,2013-03-03 06:14:00,
2013-03-03 01:29:00,28.8,25.0,29.65,NW,326,0.0,6.0,84,0.00,,,0.00,weatherlink.com 1.10,2013-03-03 06:29:00,
2013-03-03 01:44:00,28.7,25.0,29.65,WNW,297,2.0,5.0,85,0.00,,,0.00,weatherlink.com 1.10,2013-03-03 06:44:00,
2013-03-03 01:59:00,28.6,25.0,29.65,WNW,293,1.0,5.0,85,0.00,,,0.00,weatherlink.com 1.10,2013-03-03 06:59:00,
2013-03-03 02:14:00,28.5,25.0,29.64,NW,311,0.0,4.0,85,0.00,,,0.00,weatherlink.com 1.10,2013-03-03 07:14:00,
2013-03-03 02:29:00,28.3,24.0,29.64,WNW,297,0.0,4.0,85,0.00,,,0.00,weatherlink.com 1.10,2013-03-03 07:29:00,
2013-03-03 02:44:00,28.1,24.0,29.64,NNW,333,0.0,3.0,85,0.00,,,0.00,weatherlink.com 1.10,2013-03-03 07:44:00,
2013-03-03 02:59:00,27.8,24.0,29.64,NNW,340,1.0,3.0,85,0.00,,,0.00,weatherlink.com 1.10,2013-03-03 07:59:00,
2013-03-03 03:14:00,27.6,24.0,29.64,WNW,285,0.0,4.0,85,0.00,,,0.00,weatherlink.com 1.10,2013-03-03 08:14:00,
2013-03-03 03:29:00,27.4,24.0,29.64,NNW,341,0.0,5.0,85,0.00,,,0.00,weatherlink.com 1.10,2013-03-03 08:29:00,
2013-03-03 03:44:00,27.2,23.0,29.64,NW,326,0.0,3.0,85,0.00,,,0.00,weatherlink.com 1.10,2013-03-03 08:44:00,
2013-03-03 03:59:00,27.0,23.0,29.64,NW,319,0.0,3.0,85,0.00,,,0.00,weatherlink.com 1.10,2013-03-03 08:59:00,
2013-03-03 04:14:00,26.9,23.0,29.64,NW,320,0.0,4.0,85,0.00,,,0.00,weatherlink.com 1.10,2013-03-03 09:14:00,
2013-03-03 04:29:00,26.7,23.0,29.64,WNW,300,0.0,2.0,86,0.00,,,0.00,weatherlink.com 1.10,2013-03-03 09:29:00,
2013-03-03 04:44:00,26.7,23.0,29.64,NW,322,0.0,2.0,86,0.00,,,0.00,weatherlink.com 1.10,2013-03-03 09:44:00,
2013-03-03 04:59:00,26.6,23.0,29.64,WNW,291,1.0,3.0,86,0.00,,,0.00,weatherlink.com 1.10,2013-03-03 09:59:00,
2013-03-03 05:14:00,26.6,23.0,29.64,NNE,12,0.0,2.0,86,0.00,,,0.00,weatherlink.com 1.10,2013-03-03 10:14:00,
2013-03-03 05:29:00,26.6,23.0,29.64,NNW,340,0.0,0.0,85,0.00,,,0.00,weatherlink.com 1.10,2013-03-03 10:29:00,
2013-03-03 05:44:00,26.6,23.0,29.64,NW,315,0.0,4.0,86,0.00,,,0.00,weatherlink.com 1.10,2013-03-03 10:44:00,
2013-03-03 05:59:00,26.5,23.0,29.65,NNW,346,2.0,5.0,87,0.00,,,0.00,weatherlink.com 1.10,2013-03-03 10:59:00,
2013-03-03 06:15:00,26.3,23.0,29.65,NNW,338,4.0,5.0,87,0.00,,,0.00,weatherlink.com 1.10,2013-03-03 11:15:00,
2013-03-03 06:30:00,26.3,23.0,29.65,NNW,342,0.0,4.0,88,0.00,,,0.00,weatherlink.com 1.10,2013-03-03 11:30:00,
2013-03-03 06:45:00,26.4,23.0,29.65,NNW,340,0.0,4.0,88,0.00,,,0.00,weatherlink.com 1.10,2013-03-03 11:45:00,
2013-03-03 07:00:00,26.5,23.0,29.65,NNW,327,1.0,3.0,88,0.00,,,0.00,weatherlink.com 1.10,2013-03-03 12:00:00,
2013-03-03 07:15:00,26.5,23.0,29.65,NW,326,0.0,3.0,88,0.00,,,0.00,weatherlink.com 1.10,2013-03-03 12:15:00,
2013-03-03 07:30:00,26.6,24.0,29.65,North,349,1.0,5.0,88,0.00,,,0.00,weatherlink.com 1.10,2013-03-03 12:30:00,
2013-03-03 07:45:00,26.9,24.0,29.65,NNW,340,1.0,3.0,87,0.00,,,0.00,weatherlink.com 1.10,2013-03-03 12:45:00,
2013-03-03 08:00:00,27.4,24.0,29.65,North,356,7.0,7.0,85,0.00,,,0.00,weatherlink.com 1.10,2013-03-03 13:00:00,
2013-03-03 08:15:00,27.6,24.0,29.66,NNW,344,2.0,8.0,85,0.00,,,0.00,weatherlink.com 1.10,2013-03-03 13:15:00,
2013-03-03 08:30:00,27.7,24.0,29.65,NNE,22,3.0,4.0,86,0.00,,,0.00,weatherlink.com 1.10,2013-03-03 13:30:00,
2013-03-03 08:45:00,27.8,24.0,29.65,NNE,23,0.0,3.0,86,0.00,,,0.00,weatherlink.com 1.10,2013-03-03 13:45:00,
2013-03-03 09:00:00,28.4,25.0,29.64,NNE,28,1.0,3.0,85,0.00,,,0.00,weatherlink.com 1.10,2013-03-03 14:00:00,
2013-03-03 09:15:00,29.0,25.0,29.64,NNW,328,1.0,4.0,84,0.00,,,0.00,weatherlink.com 1.10,2013-03-03 14:15:00,
2013-03-03 09:30:00,29.4,25.0,29.64,ESE,121,0.0,3.0,84,0.00,,,0.00,weatherlink.com 1.10,2013-03-03 14:30:00,
2013-03-03 09:45:00,29.9,26.0,29.64,WNW,300,0.0,4.0,85,0.00,,,0.00,weatherlink.com 1.10,2013-03-03 14:45:00,
2013-03-03 10:00:00,29.9,26.0,29.64,NW,322,0.0,6.0,84,0.00,,,0.00,weatherlink.com 1.10,2013-03-03 15:00:00,
2013-03-03 10:15:00,30.5,27.0,29.63,NNW,331,1.0,4.0,85,0.00,,,0.00,weatherlink.com 1.10,2013-03-03 15:15:00,
2013-03-03 10:30:00,31.4,27.0,29.63,West,262,0.0,2.0,84,0.00,,,0.00,weatherlink.com 1.10,2013-03-03 15:30:00,
2013-03-03 10:45:00,31.6,27.0,29.63,NNW,328,0.0,8.0,84,0.00,,,0.00,weatherlink.com 1.10,2013-03-03 15:45:00,
2013-03-03 11:00:00,32.6,28.0,29.63,West,281,0.0,6.0,82,0.01,,,0.01,weatherlink.com 1.10,2013-03-03 16:00:00,
2013-03-03 11:15:00,32.7,28.0,29.63,NNW,341,0.0,5.0,83,0.01,,,0.01,weatherlink.com 1.10,2013-03-03 16:15:00,
2013-03-03 11:30:00,33.5,28.0,29.62,NNW,348,3.0,4.0,80,0.01,,,0.01,weatherlink.com 1.10,2013-03-03 16:30:00,
2013-03-03 11:45:00,33.7,28.0,29.62,NNE,30,2.0,5.0,80,0.01,,,0.01,weatherlink.com 1.10,2013-03-03 16:45:00,
2013-03-03 12:00:00,34.1,29.0,29.62,NE,56,1.0,6.0,80,0.00,,,0.01,weatherlink.com 1.10,2013-03-03 17:00:00,
2013-03-03 12:15:00,34.6,29.0,29.61,NNE,19,3.0,8.0,80,0.00,,,0.01,weatherlink.com 1.10,2013-03-03 17:15:00,
2013-03-03 12:30:00,36.4,30.0,29.61,WNW,283,1.0,3.0,78,0.00,,,0.01,weatherlink.com 1.10,2013-03-03 17:30:00,
2013-03-03 12:45:00,37.3,30.0,29.60,South,172,0.0,4.0,74,0.00,,,0.01,weatherlink.com 1.10,2013-03-03 17:45:00,
2013-03-03 13:00:00,36.7,29.0,29.59,NW,322,0.0,4.0,74,0.00,,,0.01,weatherlink.com 1.10,2013-03-03 18:00:00,
2013-03-03 13:15:00,37.1,30.0,29.59,NW,308,2.0,5.0,74,0.00,,,0.01,weatherlink.com 1.10,2013-03-03 18:15:00,
2013-03-03 13:30:00,36.7,29.0,29.59,NNW,332,2.0,8.0,73,0.00,,,0.01,weatherlink.com 1.10,2013-03-03 18:30:00,
2013-03-03 13:45:00,37.5,29.0,29.59,NNW,342,2.0,5.0,71,0.00,,,0.01,weatherlink.com 1.10,2013-03-03 18:45:00,
2013-03-03 14:00:00,38.8,29.0,29.58,North,11,3.0,8.0,68,0.00,,,0.01,weatherlink.com 1.10,2013-03-03 19:00:00,
2013-03-03 14:15:00,38.1,28.0,29.58,NNW,340,3.0,5.0,66,0.00,,,0.01,weatherlink.com 1.10,2013-03-03 19:15:00,
2013-03-03 14:30:00,38.0,27.0,29.58,WNW,283,1.0,7.0,65,0.00,,,0.01,weatherlink.com 1.10,2013-03-03 19:30:00,
2013-03-03 14:45:00,37.9,27.0,29.58,SW,226,1.0,5.0,66,0.00,,,0.01,weatherlink.com 1.10,2013-03-03 19:45:00,
2013-03-03 15:00:00,38.1,28.0,29.58,ENE,67,2.0,3.0,66,0.00,,,0.01,weatherlink.com 1.10,2013-03-03 20:00:00,
2013-03-03 15:16:00,37.4,27.0,29.58,NW,304,2.0,7.0,66,0.00,,,0.01,weatherlink.com 1.10,2013-03-03 20:16:00,
2013-03-03 15:31:00,36.9,27.0,29.58,NE,46,1.0,6.0,67,0.00,,,0.01,weatherlink.com 1.10,2013-03-03 20:31:00,
2013-03-03 15:46:00,36.8,27.0,29.58,SSE,147,3.0,4.0,68,0.00,,,0.01,weatherlink.com 1.10,2013-03-03 20:46:00,
2013-03-03 16:01:00,36.5,27.0,29.58,NE,44,1.0,7.0,69,0.00,,,0.01,weatherlink.com 1.10,2013-03-03 21:01:00,
2013-03-03 16:16:00,36.0,27.0,29.59,NE,40,5.0,7.0,69,0.00,,,0.01,weatherlink.com 1.10,2013-03-03 21:16:00,
2013-03-03 16:31:00,35.7,27.0,29.59,NE,45,1.0,7.0,72,0.00,,,0.01,weatherlink.com 1.10,2013-03-03 21:31:00,
2013-03-03 16:46:00,35.3,27.0,29.59,North,360,2.0,6.0,71,0.00,,,0.01,weatherlink.com 1.10,2013-03-03 21:46:00,
2013-03-03 17:01:00,34.8,27.0,29.59,NW,314,2.0,6.0,72,0.00,,,0.01,weatherlink.com 1.10,2013-03-03 22:01:00,
2013-03-03 17:16:00,34.6,26.0,29.59,NNW,342,2.0,5.0,72,0.00,,,0.01,weatherlink.com 1.10,2013-03-03 22:16:00,
2013-03-03 17:31:00,34.4,27.0,29.59,NW,307,1.0,4.0,73,0.00,,,0.01,weatherlink.com 1.10,2013-03-03 22:31:00,
2013-03-03 17:46:00,34.1,27.0,29.59,NNW,347,0.0,2.0,75,0.00,,,0.01,weatherlink.com 1.10,2013-03-03 22:46:00,
2013-03-03 18:01:00,34.2,27.0,29.60,NW,305,3.0,5.0,74,0.00,,,0.01,weatherlink.com 1.10,2013-03-03 23:01:00,
2013-03-03 18:16:00,34.3,27.0,29.60,North,1,3.0,3.0,74,0.00,,,0.01,weatherlink.com 1.10,2013-03-03 23:16:00,
2013-03-03 18:31:00,34.3,27.0,29.60,North,6,7.0,7.0,74,0.00,,,0.01,weatherlink.com 1.10,2013-03-03 23:31:00,
2013-03-03 18:46:00,34.2,27.0,29.61,NW,310,0.0,8.0,74,0.00,,,0.01,weatherlink.com 1.10,2013-03-03 23:46:00,
2013-03-03 19:01:00,34.0,27.0,29.61,NW,324,3.0,7.0,74,0.00,,,0.01,weatherlink.com 1.10,2013-03-04 00:01:00,
2013-03-03 19:16:00,33.7,27.0,29.61,NNW,345,4.0,13.0,75,0.00,,,0.01,weatherlink.com 1.10,2013-03-04 00:16:00,
2013-03-03 19:31:00,33.4,26.0,29.61,West,271,0.0,11.0,75,0.00,,,0.01,weatherlink.com 1.10,2013-03-04 00:31:00,
2013-03-03 19:46:00,33.2,26.0,29.61,NNE,22,5.0,12.0,75,0.00,,,0.01,weatherlink.com 1.10,2013-03-04 00:46:00,
2013-03-03 20:01:00,32.9,26.0,29.62,NW,319,1.0,7.0,75,0.00,,,0.01,weatherlink.com 1.10,2013-03-04 01:01:00,
2013-03-03 20:16:00,32.8,26.0,29.62,NE,50,3.0,4.0,77,0.00,,,0.01,weatherlink.com 1.10,2013-03-04 01:16:00,
2013-03-03 20:31:00,32.4,26.0,29.62,NNW,331,3.0,10.0,77,0.00,,,0.01,weatherlink.com 1.10,2013-03-04 01:31:00,
2013-03-03 20:46:00,32.0,26.0,29.62,North,11,0.0,7.0,77,0.00,,,0.01,weatherlink.com 1.10,2013-03-04 01:46:00,
2013-03-03 21:01:00,31.8,25.0,29.62,NNW,341,4.0,8.0,77,0.00,,,0.01,weatherlink.com 1.10,2013-03-04 02:01:00,
2013-03-03 21:16:00,31.7,25.0,29.62,NW,307,2.0,6.0,77,0.00,,,0.01,weatherlink.com 1.10,2013-03-04 02:16:00,
2013-03-03 21:31:00,31.6,25.0,29.62,NW,314,0.0,6.0,77,0.00,,,0.01,weatherlink.com 1.10,2013-03-04 02:31:00,
2013-03-03 21:46:00,31.3,25.0,29.62,WNW,295,3.0,7.0,76,0.00,,,0.01,weatherlink.com 1.10,2013-03-04 02:46:00,
2013-03-03 22:01:00,31.0,24.0,29.62,WNW,297,2.0,7.0,75,0.00,,,0.01,weatherlink.com 1.10,2013-03-04 03:01:00,
2013-03-03 22:16:00,30.7,24.0,29.62,NNE,14,3.0,7.0,76,0.00,,,0.01,weatherlink.com 1.10,2013-03-04 03:16:00,
2013-03-03 22:31:00,30.5,24.0,29.61,WSW,255,0.0,8.0,76,0.00,,,0.01,weatherlink.com 1.10,2013-03-04 03:31:00,
2013-03-03 22:46:00,30.5,24.0,29.62,WSW,257,0.0,9.0,76,0.00,,,0.01,weatherlink.com 1.10,2013-03-04 03:46:00,
2013-03-03 23:01:00,30.5,24.0,29.61,NNW,340,1.0,9.0,76,0.00,,,0.01,weatherlink.com 1.10,2013-03-04 04:01:00,
2013-03-03 23:16:00,30.4,24.0,29.62,WNW,292,2.0,7.0,77,0.00,,,0.01,weatherlink.com 1.10,2013-03-04 04:16:00,
2013-03-03 23:31:00,30.6,24.0,29.62,North,352,9.0,9.0,76,0.00,,,0.01,weatherlink.com 1.10,2013-03-04 04:31:00,
2013-03-03 23:46:00,30.5,24.0,29.61,North,6,5.0,7.0,76,0.00,,,0.01,weatherlink.com 1.10,2013-03-04 04:46:00,